Data for 07/29/2015

Time Sea-Level Adjusted Pressure Absolute Pressure Temperature Relative Humidity Dew Point   
(mb) (inHg) (mb) (inHg) (C) (F) (%) (C) (F)
00:05 1026 30.3 855 25.25 11.3 52.4 53 2.1 35.8
00:10 1026 30.3 855 25.25 11.4 52.5 56 2.8 37.1
00:15 1026 30.3 855 25.25 11 51.7 59 3.2 37.8
00:20 1026 30.3 855 25.25 10.3 50.6 61 3.2 37.8
00:25 1026 30.3 855 25.25 9.9 49.7 61 2.7 36.9
00:30 1026 30.3 855 25.25 10.1 50.1 61 3 37.4
00:35 1026 30.3 856 25.28 9.9 49.8 60 2.5 36.5
00:40 1026 30.3 856 25.28 10.1 50.1 59 2.5 36.4
00:45 1026 30.3 856 25.28 10.2 50.3 57 2.2 35.9
00:50 1026 30.3 856 25.28 10.2 50.4 59 2.6 36.7
00:55 1026 30.3 856 25.28 10.2 50.3 59 2.6 36.6
01:00 1026 30.3 856 25.28 10.2 50.4 57 2.2 35.9
01:05 1026 30.3 856 25.28 10.6 51 56 2.1 35.8
01:10 1026 30.3 856 25.28 10.7 51.2 55 2 35.6
01:15 1026 30.3 856 25.28 10.7 51.2 55 2.2 35.9
01:20 1026 30.3 855 25.25 10.4 50.8 57 2.4 36.3
01:25 1026 30.3 855 25.25 10.3 50.5 56 2.1 35.7
01:30 1026 30.3 856 25.28 10.4 50.7 55 1.7 35
01:35 1026 30.3 856 25.28 10.7 51.2 54 1.7 35.1
01:40 1026 30.3 856 25.28 10.7 51.3 53 1.5 34.8
01:45 1026 30.3 856 25.28 10.7 51.3 55 2 35.7
01:50 1026 30.3 856 25.28 10.4 50.7 57 2.2 36
01:55 1026 30.3 856 25.28 9.7 49.4 62 2.8 37
02:00 1026 30.3 856 25.28 9.4 48.9 57 1.4 34.4
02:05 1026 30.3 856 25.28 9.9 49.8 57 1.9 35.5
02:10 1026 30.3 856 25.28 9.6 49.2 59 2.1 35.8
02:15 1026 30.3 856 25.28 9.3 48.7 61 2.2 35.9
02:20 1026 30.3 856 25.28 9 48.1 61 1.9 35.4
02:25 1026 30.3 856 25.28 9.1 48.3 60 1.8 35.2
02:30 1026 30.3 856 25.28 9.2 48.5 60 1.7 35.1
02:35 1026 30.3 856 25.28 9.1 48.4 60 1.8 35.2
02:40 1026 30.3 856 25.28 9.2 48.6 60 2 35.6
02:45 1026 30.3 856 25.28 8.7 47.6 63 2 35.6
02:50 1026 30.3 856 25.28 8.6 47.5 62 1.7 35.1
02:55 1026 30.3 856 25.28 8.7 47.7 61 1.7 35
03:00 1026 30.3 856 25.28 8.7 47.7 61 1.7 35.1
03:05 1027 30.33 856 25.28 8.5 47.3 63 1.8 35.2
03:10 1027 30.33 856 25.28 8.3 46.9 63 1.7 35.1
03:15 1027 30.33 856 25.28 8.3 47 63 1.7 35
03:20 1027 30.33 856 25.28 8.2 46.8 63 1.5 34.7
03:25 1027 30.33 856 25.28 8.1 46.5 64 1.7 35
03:30 1027 30.33 856 25.28 8 46.4 64 1.6 34.9
03:35 1027 30.33 856 25.28 8.1 46.6 64 1.8 35.3
03:40 1027 30.33 856 25.28 7.9 46.1 65 1.7 35.1
03:45 1027 30.33 856 25.28 8.1 46.5 61 0.9 33.7
03:50 1027 30.33 856 25.28 8.5 47.3 61 1.4 34.5
03:55 1027 30.33 856 25.28 8.4 47.2 61 1.5 34.7
04:00 1027 30.33 856 25.28 8.3 47 62 1.6 34.9
04:05 1027 30.33 856 25.28 8.2 46.8 62 1.4 34.5
04:10 1027 30.33 856 25.28 8.2 46.7 61 1.2 34.2
04:15 1027 30.33 856 25.28 8.3 47 61 1.2 34.2
04:20 1027 30.33 856 25.28 8.5 47.2 62 1.6 34.9
04:25 1027 30.33 856 25.28 8.1 46.6 64 1.7 35
04:30 1027 30.33 856 25.28 7.9 46.2 67 2.1 35.7
04:35 1027 30.33 856 25.28 7.6 45.7 66 1.6 35
04:40 1027 30.33 856 25.28 7.5 45.6 67 1.8 35.2
04:45 1027 30.33 856 25.28 7.6 45.6 66 1.7 35
04:50 1027 30.33 856 25.28 7.4 45.3 68 2 35.6
04:55 1027 30.33 856 25.28 6.9 44.4 71 2.1 35.7
05:00 1027 30.33 856 25.28 6.6 44 71 1.8 35.2
05:05 1027 30.33 856 25.28 6.8 44.3 70 1.7 35
05:10 1027 30.33 856 25.28 6.9 44.5 70 1.9 35.4
05:15 1027 30.33 856 25.28 6.8 44.2 70 1.7 35.1
05:20 1027 30.33 856 25.28 6.8 44.3 69 1.6 34.9
05:25 1027 30.33 856 25.28 6.9 44.4 70 1.9 35.4
05:30 1027 30.33 856 25.28 6.6 43.9 73 2 35.7
05:35 1027 30.33 856 25.28 6.4 43.6 70 1.3 34.3
05:40 1027 30.33 857 25.31 7.1 44.7 68 1.7 35
05:45 1027 30.33 857 25.31 7 44.7 69 1.7 35.1
05:50 1027 30.33 857 25.31 7.1 44.7 67 1.3 34.3
05:55 1027 30.33 857 25.31 7.5 45.5 65 1.3 34.3
06:00 1027 30.33 857 25.31 8 46.4 64 1.6 34.9
06:05 1027 30.33 857 25.31 7.9 46.3 65 1.7 35.1
06:10 1027 30.33 857 25.31 8 46.3 64 1.5 34.8
06:15 1027 30.33 857 25.31 8.5 47.2 61 1.4 34.5
06:20 1027 30.33 857 25.31 8.8 47.8 61 1.7 35.1
06:25 1028 30.36 857 25.31 8.8 47.9 62 2 35.7
06:30 1028 30.36 857 25.31 9 48.2 62 2.1 35.8
06:35 1028 30.36 857 25.31 9.3 48.7 62 2.5 36.4
06:40 1028 30.36 857 25.31 9.5 49.2 62 2.6 36.7
06:45 1028 30.36 857 25.31 9.6 49.2 62 2.8 37
06:50 1028 30.36 857 25.31 10.2 50.3 60 2.7 36.9
06:55 1028 30.36 857 25.31 10.6 51 59 3 37.4
07:00 1028 30.36 857 25.31 10.7 51.2 59 3 37.4
07:05 1028 30.36 857 25.31 11 51.8 58 3.2 37.7
07:10 1028 30.36 857 25.31 11.8 53.2 55 3.1 37.6
07:15 1028 30.36 857 25.31 12.2 54 54 3.3 37.9
07:20 1028 30.36 857 25.31 12.7 54.9 52 3.1 37.7
07:25 1028 30.36 857 25.31 13.3 56 50 3.2 37.7
07:30 1028 30.36 857 25.31 13.8 56.8 42 1.3 34.3
07:35 1028 30.36 857 25.31 13.8 56.9 46 2.4 36.4
07:40 1028 30.36 857 25.31 13.7 56.7 46 2.5 36.4
07:45 1028 30.36 857 25.31 14.1 57.5 46 2.6 36.8
07:50 1028 30.36 857 25.31 14.6 58.3 45 2.9 37.2
07:55 1028 30.36 857 25.31 15.2 59.4 43 2.8 37.1
08:00 1028 30.36 857 25.31 16 60.7 42 3.1 37.6
08:05 1028 30.36 857 25.31 16.1 60.9 41 3 37.3
08:10 1028 30.36 857 25.31 16.1 61 40 2.6 36.8
08:15 1028 30.36 857 25.31 16.1 61 40 2.4 36.4
08:20 1028 30.36 857 25.31 16.4 61.5 39 2.6 36.6
08:25 1028 30.36 857 25.31 15.9 60.7 41 2.6 36.8
08:30 1028 30.36 857 25.31 16.2 61.2 39 2.3 36.1
08:35 1028 30.36 857 25.31 16.4 61.6 39 2.7 36.9
08:40 1028 30.36 857 25.31 17 62.5 37 2.3 36.2
08:45 1028 30.36 857 25.31 17.6 63.7 35 2.2 36
08:50 1028 30.36 857 25.31 18.1 64.5 34 2 35.6
08:55 1028 30.36 857 25.31 18.5 65.2 32 1.6 34.8
09:00 1028 30.36 857 25.31 17.9 64.3 32 1.2 34.2
09:05 1028 30.36 857 25.31 18 64.4 32 1.2 34.2
09:10 1028 30.36 857 25.31 18.1 64.6 33 1.6 34.8
09:15 1028 30.36 857 25.31 18.3 64.9 33 2 35.6
09:20 1028 30.36 857 25.31 18.7 65.6 31 1.4 34.6
09:25 1028 30.36 857 25.31 18.6 65.4 31 1.3 34.4
09:30 1028 30.36 857 25.31 18.6 65.5 32 1.6 34.9
09:35 1028 30.36 857 25.31 19.2 66.5 30 1.5 34.7
09:40 1028 30.36 857 25.31 19.4 66.8 31 2 35.6
09:45 1028 30.36 857 25.31 19.5 67.1 29 1.3 34.4
09:50 1028 30.36 857 25.31 19.3 66.7 31 1.8 35.3
09:55 1028 30.36 857 25.31 18.8 65.8 32 1.7 35.1
10:00 1028 30.36 857 25.31 19.4 66.9 32 2.3 36.2
10:05 1028 30.36 857 25.31 19.2 66.6 31 1.9 35.3
10:10 1028 30.36 857 25.31 19.3 66.7 30 1.3 34.4
10:15 1028 30.36 857 25.31 19.6 67.4 30 1.8 35.3
10:20 1028 30.36 857 25.31 19.9 67.8 32 2.8 37
10:25 1028 30.36 857 25.31 20.2 68.3 31 2.5 36.6
10:30 1028 30.36 857 25.31 19.1 66.3 33 2.4 36.3
10:35 1028 30.36 857 25.31 19 66.2 31 1.7 35.1
10:40 1028 30.36 857 25.31 19.9 67.8 30 2 35.6
10:45 1028 30.36 857 25.31 19.9 67.8 30 2 35.6
10:50 1028 30.36 857 25.31 20 68 30 1.9 35.4
10:55 1028 30.36 857 25.31 20 67.9 30 1.8 35.2
11:00 1027 30.33 857 25.31 20.1 68.2 29 1.9 35.4
11:05 1027 30.33 857 25.31 20 68 30 1.9 35.4
11:10 1027 30.33 857 25.31 20.5 68.8 28 1.3 34.4
11:15 1027 30.33 857 25.31 20.2 68.4 28 1.4 34.6
11:20 1027 30.33 857 25.31 20.8 69.5 27 1.5 34.6
11:25 1027 30.33 857 25.31 20.1 68.2 31 2.4 36.4
11:30 1027 30.33 857 25.31 19.9 67.7 29 1.5 34.7
11:35 1027 30.33 857 25.31 20.6 69 29 2.1 35.8
11:40 1027 30.33 857 25.31 20.8 69.5 29 2.3 36.1
11:45 1027 30.33 856 25.28 20.6 69.1 28 1.7 35
11:50 1027 30.33 856 25.28 20.9 69.7 28 2.1 35.9
11:55 1027 30.33 856 25.28 20.9 69.6 30 2.8 37
12:00 1027 30.33 856 25.28 20.6 69.2 29 2.2 35.9
12:05 1027 30.33 856 25.28 21.1 70 29 2.4 36.3
12:10 1027 30.33 856 25.28 21.4 70.5 27 2.1 35.7
12:15 1027 30.33 856 25.28 21.5 70.8 29 2.7 36.9
12:20 1027 30.33 856 25.28 21.6 70.9 26 1.6 35
12:25 1027 30.33 856 25.28 21.6 70.9 28 2.6 36.6
12:30 1027 30.33 856 25.28 22.2 72 27 2.3 36.2
12:35 1027 30.33 856 25.28 22.3 72.1 27 2.5 36.5
12:40 1027 30.33 856 25.28 22.6 72.6 26 2.3 36.2
12:45 1027 30.33 856 25.28 22.6 72.6 27 2.7 36.9
12:50 1027 30.33 856 25.28 22.4 72.3 27 2.8 37.1
12:55 1027 30.33 856 25.28 22.5 72.5 26 2 35.6
13:00 1027 30.33 856 25.28 22.2 71.9 27 2.6 36.6
13:05 1027 30.33 856 25.28 22.7 72.9 25 2.1 35.8
13:10 1027 30.33 856 25.28 22.7 72.8 27 3 37.4
13:15 1027 30.33 856 25.28 23.2 73.7 27 3.4 38.2
13:20 1027 30.33 856 25.28 23.1 73.6 26 2.8 37.1
13:25 1027 30.33 856 25.28 23.1 73.6 25 2 35.7
13:30 1026 30.3 856 25.28 23.6 74.5 25 2.7 36.8
13:35 1026 30.3 856 25.28 23.9 75 25 2.7 36.8
13:40 1026 30.3 856 25.28 23.2 73.8 26 2.7 36.8
13:45 1026 30.3 856 25.28 23.2 73.8 25 2.6 36.6
13:50 1026 30.3 856 25.28 23.1 73.6 26 2.5 36.5
13:55 1026 30.3 856 25.28 23.3 73.9 24 1.6 35
14:00 1026 30.3 856 25.28 23.5 74.4 23 1.7 35
14:05 1026 30.3 856 25.28 23.7 74.6 23 1.8 35.3
14:10 1026 30.3 855 25.25 22.9 73.2 25 2.3 36.1
14:15 1026 30.3 855 25.25 23.1 73.6 26 2.9 37.2
14:20 1026 30.3 855 25.25 23.3 73.9 25 2.6 36.6
14:25 1026 30.3 855 25.25 22.6 72.7 27 2.9 37.2
14:30 1026 30.3 855 25.25 22.6 72.7 26 2.1 35.9
14:35 1026 30.3 855 25.25 23.5 74.2 24 1.9 35.4
14:40 1026 30.3 855 25.25 24.1 75.5 24 2.7 36.9
14:45 1026 30.3 855 25.25 24.2 75.6 23 2.2 35.9
14:50 1026 30.3 855 25.25 24.4 76 22 1.7 35.1
14:55 1026 30.3 855 25.25 24.3 75.7 24 2.6 36.7
15:00 1026 30.3 855 25.25 22.9 73.2 25 2.1 35.7
15:05 1026 30.3 855 25.25 22.7 72.9 26 2.3 36.2
15:10 1026 30.3 855 25.25 23.1 73.5 24 1.6 34.9
15:15 1026 30.3 855 25.25 24 75.2 24 2.3 36.1
15:20 1026 30.3 855 25.25 24.3 75.7 23 2.4 36.3
15:25 1026 30.3 855 25.25 24.9 76.8 22 2 35.5
15:30 1026 30.3 855 25.25 25 76.9 22 1.9 35.4
15:35 1026 30.3 855 25.25 24.8 76.6 22 1.9 35.3
15:40 1026 30.3 855 25.25 24.7 76.4 23 2.2 35.9
15:45 1026 30.3 855 25.25 24.9 76.8 23 2.5 36.5
15:50 1026 30.3 855 25.25 24.5 76 24 2.7 36.9
15:55 1026 30.3 855 25.25 24.4 75.9 22 1.8 35.3
16:00 1025 30.27 855 25.25 24.6 76.2 21 1.1 33.9
16:05 1025 30.27 855 25.25 24.4 76 23 2.3 36.2
16:10 1025 30.27 855 25.25 25 77 21 1.4 34.5
16:15 1025 30.27 855 25.25 25 77 21 1.7 35
16:20 1025 30.27 855 25.25 24.6 76.3 21 1.4 34.4
16:25 1025 30.27 855 25.25 24.5 76.1 21 1.1 34.1
16:30 1025 30.27 855 25.25 23.7 74.7 23 1.7 35
16:35 1025 30.27 855 25.25 23.9 75 23 1.4 34.6
16:40 1025 30.27 855 25.25 24.8 76.6 21 1.2 34.1
16:45 1025 30.27 854 25.22 25.1 77.1 21 1.4 34.5
16:50 1025 30.27 854 25.22 25.2 77.4 20 1 33.8
16:55 1025 30.27 854 25.22 25.2 77.4 21 1.7 35.1
17:00 1025 30.27 854 25.22 25 77 23 2.4 36.4
17:05 1025 30.27 854 25.22 25.2 77.3 20 1 33.8
17:10 1025 30.27 854 25.22 25.3 77.5 21 1.3 34.4
17:15 1025 30.27 854 25.22 24.8 76.6 22 1.8 35.2
17:20 1025 30.27 854 25.22 24.8 76.6 21 1.4 34.6
17:25 1025 30.27 854 25.22 24.7 76.4 22 1.8 35.2
17:30 1025 30.27 854 25.22 24.5 76 22 1.7 35
17:35 1025 30.27 854 25.22 24.7 76.4 21 1.3 34.4
17:40 1025 30.27 854 25.22 24.8 76.6 22 1.8 35.3
17:45 1025 30.27 854 25.22 24.6 76.2 21 1.2 34.1
17:50 1025 30.27 854 25.22 24.5 76 22 1.8 35.2
17:55 1025 30.27 854 25.22 24.5 76.1 23 2.1 35.7
18:00 1025 30.27 854 25.22 23.7 74.7 23 1.8 35.3
18:05 1025 30.27 854 25.22 23.5 74.2 24 1.8 35.2
18:10 1025 30.27 854 25.22 23.6 74.5 23 1.3 34.4
18:15 1025 30.27 854 25.22 23.5 74.3 23 1.4 34.6
18:20 1025 30.27 854 25.22 23.3 73.9 23 1 33.7
18:25 1025 30.27 854 25.22 23.2 73.8 23 1.4 34.5
18:30 1025 30.27 854 25.22 23 73.4 25 2 35.5
18:35 1025 30.27 854 25.22 22.8 73.1 24 1.3 34.3
18:40 1025 30.27 854 25.22 22.9 73.3 23 1 33.9
18:45 1025 30.27 854 25.22 23.1 73.5 25 2.2 35.9
18:50 1025 30.27 854 25.22 22.9 73.2 24 1.5 34.8
18:55 1025 30.27 854 25.22 22.8 73.1 24 1.5 34.7
19:00 1025 30.27 854 25.22 22.7 72.8 25 1.8 35.2
19:05 1025 30.27 854 25.22 22.6 72.6 25 2 35.6
19:10 1025 30.27 854 25.22 22.4 72.3 26 1.9 35.4
19:15 1025 30.27 854 25.22 22.2 71.9 26 2.1 35.8
19:20 1025 30.27 854 25.22 22.1 71.7 26 2 35.6
19:25 1025 30.27 854 25.22 22.1 71.8 28 2.8 37.1
19:30 1025 30.27 854 25.22 22 71.5 30 3.6 38.5
19:35 1025 30.27 854 25.22 21.7 71 34 5.3 41.5
19:40 1025 30.27 854 25.22 21.5 70.7 34 5.3 41.5
19:45 1025 30.27 854 25.22 21.4 70.5 35 5.5 41.9
19:50 1025 30.27 854 25.22 21.2 70.1 41 7.7 45.8
19:55 1025 30.27 854 25.22 20.8 69.5 44 8.4 47.1
20:00 1025 30.27 854 25.22 20.4 68.7 45 8.2 46.7
20:05 1025 30.27 854 25.22 19.4 66.9 51 9.1 48.4
20:10 1025 30.27 854 25.22 18.6 65.6 48 7.6 45.7
20:15 1025 30.27 854 25.22 18.3 65 49 7.5 45.4
20:20 1025 30.27 855 25.25 18 64.4 46 6.3 43.4
20:25 1025 30.27 855 25.25 17.8 64 48 6.7 44
20:30 1025 30.27 855 25.25 17.5 63.6 48 6.4 43.6
20:35 1026 30.3 855 25.25 17.2 63 51 7.2 45
20:40 1026 30.3 855 25.25 17 62.6 48 6 42.8
20:45 1026 30.3 855 25.25 16.9 62.4 48 6 42.9
20:50 1026 30.3 855 25.25 16.8 62.3 48 5.9 42.7
20:55 1026 30.3 855 25.25 16.5 61.7 49 5.9 42.7
21:00 1026 30.3 855 25.25 16.3 61.3 50 5.9 42.7
21:05 1026 30.3 855 25.25 16 60.8 51 6 42.7
21:10 1026 30.3 855 25.25 15.8 60.5 51 5.8 42.5
21:15 1026 30.3 855 25.25 15.6 60.2 51 5.5 41.9
21:20 1026 30.3 855 25.25 15.6 60.1 51 5.5 41.8
21:25 1026 30.3 855 25.25 15.6 60 49 5.1 41.1
21:30 1026 30.3 855 25.25 15.5 59.9 51 5.6 42.2
21:35 1026 30.3 855 25.25 15 59.1 53 5.6 42.1
21:40 1026 30.3 855 25.25 15 58.9 51 5 40.9
21:45 1026 30.3 855 25.25 15.2 59.3 52 5.4 41.6
21:50 1026 30.3 855 25.25 15.2 59.3 50 5 41
21:55 1026 30.3 855 25.25 15.1 59.3 50 4.8 40.7
22:00 1026 30.3 855 25.25 15.2 59.3 49 4.7 40.5
22:05 1026 30.3 855 25.25 15.2 59.3 49 4.7 40.5
22:10 1026 30.3 855 25.25 15 59 51 5 41
22:15 1026 30.3 855 25.25 14.7 58.5 52 4.9 40.9
22:20 1026 30.3 855 25.25 14.6 58.3 51 4.7 40.5
22:25 1026 30.3 855 25.25 14.8 58.6 50 4.5 40.1
22:30 1026 30.3 855 25.25 14.8 58.7 50 4.5 40.1
22:35 1026 30.3 855 25.25 14.9 58.9 48 4.2 39.6
22:40 1026 30.3 855 25.25 15.1 59.2 49 4.7 40.4
22:45 1026 30.3 855 25.25 14.8 58.6 50 4.5 40.2
22:50 1026 30.3 855 25.25 14.8 58.6 49 4.3 39.7
22:55 1026 30.3 855 25.25 14.8 58.7 49 4.4 39.8
23:00 1026 30.3 855 25.25 14.8 58.7 48 3.9 39
23:05 1026 30.3 855 25.25 14.8 58.7 48 4.1 39.4
23:10 1026 30.3 855 25.25 14.7 58.4 49 4.1 39.4
23:15 1026 30.3 856 25.28 14.7 58.4 49 4.1 39.5
23:20 1026 30.3 856 25.28 14.5 58 50 4.1 39.5
23:25 1026 30.3 856 25.28 14.4 57.9 49 3.9 39
23:30 1026 30.3 856 25.28 14.6 58.2 47 3.6 38.5
23:35 1027 30.33 856 25.28 14.7 58.5 47 3.6 38.5
23:40 1027 30.33 856 25.28 14.7 58.5 47 3.8 38.8
23:45 1027 30.33 856 25.28 14.6 58.4 48 3.9 39.1
23:50 1027 30.33 856 25.28 14.6 58.3 48 3.8 38.8
23:55 1027 30.33 856 25.28 14.6 58.2 49 4 39.2
24:00 1027 30.33 856 25.28 14.3 57.8 50 4.1 39.3